createdAt,value
2023-01-31T00:01:50.689Z,9.40
2023-01-31T00:04:19.806Z,8.30
2023-01-31T00:06:53.761Z,6.05
2023-01-31T00:09:21.793Z,7.20
2023-01-31T00:11:52.196Z,8.20
2023-01-31T00:14:21.434Z,8.40
2023-01-31T00:16:51.295Z,8.43
2023-01-31T00:19:22.997Z,7.28
2023-01-31T00:21:50.753Z,5.70
2023-01-31T00:24:18.463Z,5.13
2023-01-31T00:26:56.738Z,5.38
2023-01-31T00:29:27.011Z,5.65
2023-01-31T00:31:55.646Z,5.88
2023-01-31T00:34:24.786Z,5.05
2023-01-31T00:36:55.453Z,4.53
2023-01-31T00:39:23.195Z,4.15
2023-01-31T00:41:52.056Z,3.95
2023-01-31T00:44:19.786Z,4.10
2023-01-31T00:46:47.590Z,4.65
2023-01-31T00:49:15.344Z,5.18
2023-01-31T00:51:44.686Z,4.07
2023-01-31T00:54:14.304Z,4.75
2023-01-31T00:56:42.254Z,2.97
2023-01-31T00:59:10.117Z,3.90
2023-01-31T01:01:38.906Z,5.30
2023-01-31T01:04:06.894Z,6.70
2023-01-31T01:06:37.444Z,7.53
2023-01-31T01:09:07.899Z,4.50
2023-01-31T01:11:36.834Z,4.75
2023-01-31T01:14:08.473Z,4.35
2023-01-31T01:16:38.382Z,7.25
2023-01-31T01:19:07.739Z,5.40
2023-01-31T01:21:39.012Z,7.85
2023-01-31T01:24:12.978Z,6.45
2023-01-31T01:26:40.792Z,4.10
2023-01-31T01:29:08.969Z,5.30
2023-01-31T01:31:38.709Z,6.00
2023-01-31T01:34:08.365Z,3.88
2023-01-31T01:36:38.958Z,10.57
2023-01-31T01:39:12.798Z,8.05
2023-01-31T01:41:43.277Z,5.72
2023-01-31T01:44:51.888Z,6.20
2023-01-31T01:47:36.383Z,7.30
2023-01-31T01:50:13.173Z,7.45
2023-01-31T01:52:45.880Z,5.80
2023-01-31T01:55:22.739Z,5.93
2023-01-31T01:57:55.838Z,7.57
2023-01-31T02:00:25.621Z,7.22
2023-01-31T02:02:57.092Z,6.60
2023-01-31T02:05:30.670Z,7.03
2023-01-31T02:08:02.060Z,6.28
2023-01-31T02:10:34.409Z,3.75
2023-01-31T02:13:03.347Z,5.10
2023-01-31T02:15:32.461Z,5.97
2023-01-31T02:18:00.345Z,5.35
2023-01-31T02:21:03.604Z,8.82
2023-01-31T02:23:55.639Z,10.35
2023-01-31T02:26:50.280Z,6.68
2023-01-31T02:30:05.877Z,6.22
2023-01-31T02:32:49.830Z,6.28
2023-01-31T02:35:29.501Z,6.67
2023-01-31T02:38:19.590Z,8.27
2023-01-31T02:40:53.662Z,5.70
2023-01-31T02:46:00.281Z,6.47
2023-01-31T02:48:41.462Z,8.40
2023-01-31T02:51:15.829Z,7.15
2023-01-31T02:53:49.522Z,5.47
2023-01-31T02:56:23.722Z,6.45
2023-01-31T02:58:57.708Z,8.27
2023-01-31T03:01:30.334Z,5.88
2023-01-31T03:04:05.852Z,8.63
2023-01-31T03:06:59.879Z,9.15
2023-01-31T03:09:37.873Z,7.03
2023-01-31T03:12:30.539Z,10.23
2023-01-31T03:15:10.931Z,8.00
2023-01-31T03:17:55.100Z,8.00
2023-01-31T03:20:30.552Z,7.82
2023-01-31T03:23:01.991Z,8.60
2023-01-31T03:25:33.359Z,8.75
2023-01-31T03:28:09.143Z,7.85
2023-01-31T03:30:40.818Z,6.88
2023-01-31T03:33:15.856Z,7.05
2023-01-31T03:35:51.377Z,7.35
2023-01-31T03:38:23.428Z,6.15
2023-01-31T03:40:58.571Z,10.73
2023-01-31T03:43:34.325Z,5.53
2023-01-31T03:46:08.664Z,7.05
2023-01-31T03:48:40.481Z,8.23
2023-01-31T03:51:19.119Z,8.65
2023-01-31T03:53:52.251Z,6.30
2023-01-31T03:56:26.007Z,9.07
2023-01-31T03:58:58.992Z,10.07
2023-01-31T04:01:32.845Z,4.35
2023-01-31T04:04:06.526Z,8.10
2023-01-31T04:06:36.116Z,8.52
2023-01-31T04:09:04.923Z,6.70
2023-01-31T04:11:38.189Z,4.95
2023-01-31T04:14:06.485Z,6.07
2023-01-31T04:16:34.242Z,5.97
2023-01-31T04:19:02.031Z,3.70
2023-01-31T04:21:29.734Z,6.75
2023-01-31T04:23:58.900Z,4.90
2023-01-31T04:26:26.688Z,8.45
2023-01-31T04:28:54.516Z,7.15
2023-01-31T04:31:22.350Z,7.75
2023-01-31T04:33:50.073Z,5.63
2023-01-31T04:36:17.771Z,6.78
2023-01-31T04:38:45.479Z,6.70
2023-01-31T04:41:14.567Z,7.28
2023-01-31T04:43:42.287Z,5.47
2023-01-31T04:46:10.302Z,4.40
2023-01-31T04:48:39.176Z,9.18
2023-01-31T04:51:07.204Z,10.98
2023-01-31T04:53:35.012Z,6.03
2023-01-31T04:56:03.032Z,8.48
2023-01-31T04:58:32.468Z,5.85
2023-01-31T05:01:00.640Z,8.15
2023-01-31T05:03:28.360Z,6.43
2023-01-31T05:05:55.994Z,9.70
2023-01-31T05:08:23.654Z,6.97
2023-01-31T05:10:51.393Z,7.25
2023-01-31T05:13:19.066Z,7.63
2023-01-31T05:15:50.407Z,7.70
2023-01-31T05:18:18.179Z,7.72
2023-01-31T05:20:45.916Z,7.90
2023-01-31T05:23:14.154Z,8.38
2023-01-31T05:25:41.877Z,10.80
2023-01-31T05:28:12.600Z,9.18
2023-01-31T05:30:44.855Z,8.52
2023-01-31T05:33:14.698Z,5.18
2023-01-31T05:35:43.034Z,8.27
2023-01-31T05:38:12.230Z,7.22
2023-01-31T05:40:40.050Z,4.75
2023-01-31T05:43:07.770Z,4.55
2023-01-31T05:45:35.567Z,3.95
2023-01-31T05:48:03.647Z,9.60
2023-01-31T05:50:33.126Z,4.30
2023-01-31T05:53:11.026Z,2.67
2023-01-31T05:55:38.767Z,6.88
2023-01-31T05:58:06.673Z,1.67
2023-01-31T06:00:34.373Z,7.68
2023-01-31T06:03:02.336Z,4.57
2023-01-31T06:05:32.253Z,5.57
2023-01-31T06:08:00.345Z,5.22
2023-01-31T06:10:28.204Z,5.25
2023-01-31T06:12:56.086Z,5.30
2023-01-31T06:15:23.826Z,6.50
2023-01-31T06:17:51.590Z,6.18
2023-01-31T06:20:19.569Z,3.22
2023-01-31T06:22:48.610Z,4.60
2023-01-31T06:25:16.304Z,4.97
2023-01-31T06:27:44.049Z,5.57
2023-01-31T06:30:12.973Z,3.97
2023-01-31T06:32:43.886Z,5.72
2023-01-31T06:35:11.632Z,8.68
2023-01-31T06:37:39.366Z,6.03
2023-01-31T06:40:12.487Z,6.88
2023-01-31T06:42:40.178Z,8.88
2023-01-31T06:45:09.570Z,6.03
2023-01-31T06:47:37.315Z,6.70
2023-01-31T06:50:05.969Z,6.60
2023-01-31T06:52:35.070Z,6.07
2023-01-31T06:55:02.717Z,4.22
2023-01-31T06:57:31.793Z,6.82
2023-01-31T06:59:59.463Z,7.35
2023-01-31T07:02:27.398Z,6.75
2023-01-31T07:04:55.477Z,3.65
2023-01-31T07:07:23.421Z,6.70
2023-01-31T07:09:53.911Z,5.65
2023-01-31T07:12:21.730Z,8.90
2023-01-31T07:14:50.758Z,7.20
2023-01-31T07:17:20.997Z,8.13
2023-01-31T07:19:48.810Z,4.97
2023-01-31T07:22:16.736Z,5.57
2023-01-31T07:24:44.811Z,8.30
2023-01-31T07:27:14.242Z,5.85
2023-01-31T07:29:42.078Z,7.95
2023-01-31T07:32:11.707Z,7.32
2023-01-31T07:34:39.435Z,8.93
2023-01-31T07:37:07.228Z,5.70
2023-01-31T07:39:34.973Z,8.55
2023-01-31T07:42:02.794Z,6.72
2023-01-31T07:44:30.914Z,3.50
2023-01-31T07:46:58.925Z,5.03
2023-01-31T07:49:27.955Z,5.38
2023-01-31T07:51:55.803Z,5.63
2023-01-31T07:54:23.546Z,8.25
2023-01-31T07:56:51.325Z,7.00
2023-01-31T07:59:19.382Z,2.22
2023-01-31T08:02:04.512Z,7.40
2023-01-31T08:04:35.309Z,4.20
2023-01-31T08:07:05.597Z,4.63
2023-01-31T08:09:33.606Z,6.30
2023-01-31T08:12:01.478Z,2.70
2023-01-31T08:14:29.425Z,4.07
2023-01-31T08:16:57.533Z,7.30
2023-01-31T08:19:26.720Z,4.25
2023-01-31T08:21:55.839Z,7.30
2023-01-31T08:24:23.931Z,5.45
2023-01-31T08:26:51.772Z,4.03
2023-01-31T08:29:20.077Z,6.80
2023-01-31T08:31:49.807Z,2.90
2023-01-31T08:34:19.431Z,4.30
2023-01-31T08:36:47.364Z,3.58
2023-01-31T08:39:16.527Z,3.88
2023-01-31T08:41:44.350Z,1.77
2023-01-31T08:44:13.519Z,2.28
2023-01-31T08:46:41.373Z,5.75
2023-01-31T08:49:11.459Z,3.03
2023-01-31T08:51:39.289Z,2.05
2023-01-31T08:54:07.062Z,4.95
2023-01-31T08:56:36.223Z,3.97
2023-01-31T08:59:04.090Z,4.18
2023-01-31T09:01:32.733Z,3.83
2023-01-31T09:04:00.548Z,5.55
2023-01-31T09:06:29.008Z,4.78
2023-01-31T09:08:58.585Z,4.53
2023-01-31T09:11:30.119Z,6.45
2023-01-31T09:13:59.863Z,4.38
2023-01-31T09:16:27.635Z,4.40
2023-01-31T09:18:56.355Z,4.43
2023-01-31T09:21:25.100Z,3.83
2023-01-31T09:23:57.155Z,5.40
2023-01-31T09:26:25.246Z,3.47
2023-01-31T09:28:53.134Z,6.75
2023-01-31T09:31:22.947Z,5.07
2023-01-31T09:33:50.744Z,4.85
2023-01-31T09:36:20.503Z,3.90
2023-01-31T09:38:49.083Z,5.47
2023-01-31T09:41:24.684Z,5.15
2023-01-31T09:43:56.841Z,5.70
2023-01-31T09:46:32.482Z,3.20
2023-01-31T09:49:05.815Z,5.72
2023-01-31T09:51:35.461Z,5.05
2023-01-31T09:54:06.876Z,4.00
2023-01-31T09:56:41.889Z,5.47
2023-01-31T09:59:20.123Z,3.70
2023-01-31T10:01:59.259Z,3.65
2023-01-31T10:04:44.326Z,2.83
2023-01-31T10:07:17.264Z,4.38
2023-01-31T10:09:49.914Z,5.32
2023-01-31T10:12:21.381Z,3.00
2023-01-31T10:14:53.317Z,4.35
2023-01-31T10:17:29.342Z,3.85
2023-01-31T10:20:01.591Z,4.93
2023-01-31T10:22:35.385Z,4.72
2023-01-31T10:25:18.381Z,2.25
2023-01-31T10:27:49.818Z,4.57
2023-01-31T10:30:20.924Z,6.20
2023-01-31T10:32:56.887Z,3.42
2023-01-31T10:35:31.703Z,5.10
2023-01-31T10:38:05.872Z,4.70
2023-01-31T10:40:39.804Z,3.88
2023-01-31T10:43:16.659Z,3.95
2023-01-31T10:45:44.605Z,3.42
2023-01-31T10:48:19.190Z,5.75
2023-01-31T10:50:58.291Z,4.75
2023-01-31T10:53:56.745Z,4.40
2023-01-31T10:56:32.993Z,4.43
2023-01-31T10:59:06.015Z,3.90
2023-01-31T11:01:35.650Z,2.63
2023-01-31T11:04:24.088Z,4.20
2023-01-31T11:06:52.357Z,5.55
2023-01-31T11:09:22.133Z,5.43
2023-01-31T11:11:57.137Z,6.20
2023-01-31T11:14:25.070Z,5.43
2023-01-31T11:17:00.924Z,4.13
2023-01-31T11:19:37.666Z,5.38
2023-01-31T11:22:06.168Z,4.22
2023-01-31T11:24:36.958Z,4.57
2023-01-31T11:27:08.753Z,4.95
2023-01-31T11:29:41.175Z,4.80
2023-01-31T11:32:18.612Z,3.20
2023-01-31T11:34:59.215Z,4.50
2023-01-31T11:37:28.484Z,4.38
2023-01-31T11:39:58.717Z,4.03
2023-01-31T11:42:27.319Z,5.03
2023-01-31T11:44:56.905Z,2.95
2023-01-31T11:47:29.692Z,3.05
2023-01-31T11:49:59.060Z,3.97
2023-01-31T11:52:31.013Z,3.95
2023-01-31T11:55:01.305Z,3.40
2023-01-31T11:57:32.774Z,3.30
2023-01-31T12:00:02.957Z,4.18
2023-01-31T12:02:42.417Z,2.60
2023-01-31T12:05:15.112Z,2.58
2023-01-31T12:07:45.321Z,4.13
2023-01-31T12:10:28.711Z,3.63
2023-01-31T12:13:16.465Z,3.42
2023-01-31T12:15:55.515Z,3.00
2023-01-31T12:18:36.381Z,2.67
2023-01-31T12:21:16.936Z,3.33
2023-01-31T12:23:55.020Z,3.30
2023-01-31T12:26:34.539Z,3.00
2023-01-31T12:29:20.928Z,3.72
2023-01-31T12:32:02.523Z,3.85
2023-01-31T12:34:59.036Z,4.00
2023-01-31T12:37:42.915Z,2.85
2023-01-31T12:40:30.811Z,2.60
2023-01-31T12:43:02.300Z,2.72
2023-01-31T12:45:43.353Z,3.03
2023-01-31T12:48:35.107Z,2.58
2023-01-31T12:51:14.114Z,2.40
2023-01-31T12:53:58.521Z,2.80
2023-01-31T12:56:48.324Z,3.30
2023-01-31T12:59:28.959Z,2.92
2023-01-31T13:02:04.025Z,2.85
2023-01-31T13:04:43.708Z,3.60
2023-01-31T13:07:16.386Z,3.50
2023-01-31T13:09:48.425Z,2.85
2023-01-31T13:12:20.411Z,2.85
2023-01-31T13:14:52.925Z,3.63
2023-01-31T13:17:26.184Z,3.05
2023-01-31T13:19:57.351Z,2.78
2023-01-31T13:22:28.827Z,3.88
2023-01-31T13:25:04.255Z,3.58
2023-01-31T13:27:38.199Z,3.55
2023-01-31T13:30:17.357Z,2.83
2023-01-31T13:32:49.739Z,3.58
2023-01-31T13:35:23.502Z,2.97
2023-01-31T13:37:57.871Z,3.72
2023-01-31T13:40:30.731Z,3.50
2023-01-31T13:43:03.487Z,2.78
2023-01-31T13:45:34.670Z,3.53
2023-01-31T13:48:08.200Z,2.60
2023-01-31T13:50:42.201Z,2.77
2023-01-31T13:53:16.689Z,2.85
2023-01-31T13:55:48.532Z,2.92
2023-01-31T13:58:20.987Z,3.78
2023-01-31T14:00:51.143Z,2.55
2023-01-31T14:03:20.990Z,2.63
2023-01-31T14:05:55.774Z,3.05
2023-01-31T14:08:36.629Z,3.50
2023-01-31T14:11:36.865Z,3.58
2023-01-31T14:14:29.108Z,3.10
2023-01-31T14:16:56.946Z,3.80
2023-01-31T14:20:09.833Z,4.03
2023-01-31T14:22:41.337Z,3.50
2023-01-31T14:25:16.040Z,3.50
2023-01-31T14:28:01.980Z,3.10
2023-01-31T14:30:37.368Z,3.70
2023-01-31T14:33:21.910Z,4.10
2023-01-31T14:36:26.950Z,3.20
2023-01-31T14:39:17.290Z,4.10
2023-01-31T14:42:07.163Z,3.42
2023-01-31T14:44:51.143Z,3.70
2023-01-31T14:47:31.820Z,3.77
2023-01-31T14:50:20.099Z,3.90
2023-01-31T14:53:08.921Z,3.30
2023-01-31T14:56:08.835Z,3.42
2023-01-31T14:58:37.513Z,2.67
2023-01-31T15:01:08.647Z,4.10
2023-01-31T15:03:40.317Z,2.60
2023-01-31T15:06:12.776Z,3.33
2023-01-31T15:08:49.300Z,3.60
2023-01-31T15:11:43.362Z,3.85
2023-01-31T15:14:34.301Z,2.58
2023-01-31T15:17:32.107Z,4.50
2023-01-31T15:20:14.987Z,2.25
2023-01-31T15:22:44.237Z,2.88
2023-01-31T15:25:24.545Z,4.43
2023-01-31T15:27:54.047Z,4.07
2023-01-31T15:30:23.592Z,3.55
2023-01-31T15:32:57.546Z,4.50
2023-01-31T15:35:30.436Z,4.90
2023-01-31T15:38:02.758Z,4.22
2023-01-31T15:40:32.109Z,4.28
2023-01-31T15:43:18.032Z,4.38
2023-01-31T15:45:47.661Z,4.85
2023-01-31T15:48:18.107Z,3.95
2023-01-31T15:50:54.388Z,5.20
2023-01-31T15:53:24.578Z,2.45
2023-01-31T15:55:58.080Z,4.45
2023-01-31T15:58:28.099Z,4.93
2023-01-31T16:00:57.287Z,4.80
2023-01-31T16:03:28.602Z,3.63
2023-01-31T16:05:58.275Z,4.50
2023-01-31T16:08:30.098Z,4.53
2023-01-31T16:10:59.290Z,4.70
2023-01-31T16:13:27.907Z,4.90
2023-01-31T16:15:56.053Z,5.28
2023-01-31T16:18:24.871Z,5.18
2023-01-31T16:20:56.451Z,4.55
2023-01-31T16:23:28.054Z,4.88
2023-01-31T16:26:01.348Z,4.43
2023-01-31T16:28:31.811Z,5.63
2023-01-31T16:31:17.075Z,5.03
2023-01-31T16:33:50.964Z,4.18
2023-01-31T16:36:24.895Z,4.13
2023-01-31T16:38:58.607Z,4.60
2023-01-31T16:41:58.032Z,3.78
2023-01-31T16:44:29.705Z,4.43
2023-01-31T16:46:59.360Z,5.65
2023-01-31T16:49:29.725Z,4.60
2023-01-31T16:52:10.118Z,4.25
2023-01-31T16:54:45.901Z,5.20
2023-01-31T16:57:27.082Z,3.22
2023-01-31T16:59:55.496Z,3.45
2023-01-31T17:02:27.328Z,5.00
2023-01-31T17:04:57.620Z,4.60
2023-01-31T17:07:30.092Z,4.38
2023-01-31T17:10:00.467Z,4.43
2023-01-31T17:12:30.733Z,3.95
2023-01-31T17:15:03.107Z,4.07
2023-01-31T17:17:37.271Z,5.35
2023-01-31T17:20:05.743Z,6.50
2023-01-31T17:22:34.929Z,2.88
2023-01-31T17:25:02.758Z,4.00
2023-01-31T17:27:30.627Z,5.40
2023-01-31T17:29:58.373Z,5.78
2023-01-31T17:32:26.162Z,6.63
2023-01-31T17:34:53.945Z,5.72
2023-01-31T17:37:31.143Z,5.05
2023-01-31T17:40:01.725Z,5.35
2023-01-31T17:42:29.636Z,5.53
2023-01-31T17:44:59.606Z,3.78
2023-01-31T17:47:27.749Z,5.85
2023-01-31T17:49:57.289Z,4.50
2023-01-31T17:52:25.250Z,4.82
2023-01-31T17:54:53.083Z,6.72
2023-01-31T17:57:22.183Z,5.20
2023-01-31T17:59:50.029Z,5.05
2023-01-31T18:02:17.775Z,6.20
2023-01-31T18:04:45.545Z,4.15
2023-01-31T18:07:16.670Z,5.50
2023-01-31T18:09:45.610Z,5.72
2023-01-31T18:12:13.388Z,4.40
2023-01-31T18:14:42.603Z,4.90
2023-01-31T18:17:10.684Z,3.83
2023-01-31T18:19:38.515Z,4.10
2023-01-31T18:22:06.365Z,4.97
2023-01-31T18:24:34.291Z,4.18
2023-01-31T18:27:02.095Z,5.15
2023-01-31T18:29:30.008Z,3.63
2023-01-31T18:32:02.448Z,3.30
2023-01-31T18:34:31.537Z,4.10
2023-01-31T18:37:00.965Z,4.45
2023-01-31T18:39:28.758Z,4.35
2023-01-31T18:41:56.512Z,3.72
2023-01-31T18:44:24.485Z,4.18
2023-01-31T18:46:52.407Z,4.60
2023-01-31T18:49:21.576Z,5.43
2023-01-31T18:51:49.745Z,5.80
2023-01-31T18:54:17.627Z,3.58
2023-01-31T18:56:45.414Z,4.43
2023-01-31T18:59:13.214Z,3.90
2023-01-31T19:01:43.339Z,4.53
2023-01-31T19:04:11.543Z,3.50
2023-01-31T19:06:41.510Z,3.75
2023-01-31T19:09:10.263Z,4.47
2023-01-31T19:11:38.162Z,3.30
2023-01-31T19:14:07.608Z,3.80
2023-01-31T19:16:40.679Z,2.95
2023-01-31T19:19:09.502Z,3.53
2023-01-31T19:21:38.760Z,4.50
2023-01-31T19:24:11.390Z,4.45
2023-01-31T19:26:39.284Z,4.57
2023-01-31T19:29:09.805Z,4.60
2023-01-31T19:31:38.112Z,2.35
2023-01-31T19:34:07.327Z,3.78
2023-01-31T19:36:37.465Z,5.13
2023-01-31T19:39:07.119Z,4.15
2023-01-31T19:41:36.333Z,3.42
2023-01-31T19:44:05.169Z,3.45
2023-01-31T19:46:35.774Z,4.10
2023-01-31T19:49:04.191Z,3.38
2023-01-31T19:51:32.514Z,3.33
2023-01-31T19:54:02.767Z,2.08
2023-01-31T19:56:31.881Z,3.58
2023-01-31T19:59:01.371Z,2.65
2023-01-31T20:01:29.138Z,2.60
2023-01-31T20:03:57.004Z,4.32
2023-01-31T20:06:27.741Z,2.65
2023-01-31T20:08:56.775Z,2.33
2023-01-31T20:11:25.016Z,2.35
2023-01-31T20:13:54.171Z,2.70
2023-01-31T20:16:24.000Z,3.13
2023-01-31T20:18:54.142Z,4.00
2023-01-31T20:21:22.775Z,3.17
2023-01-31T20:23:53.678Z,3.75
2023-01-31T20:26:24.058Z,2.95
2023-01-31T20:28:51.992Z,2.80
2023-01-31T20:31:19.937Z,3.42
2023-01-31T20:33:51.067Z,2.78
2023-01-31T20:36:19.206Z,3.45
2023-01-31T20:38:47.164Z,2.10
2023-01-31T20:41:15.209Z,2.13
2023-01-31T20:43:43.336Z,1.92
2023-01-31T20:46:13.901Z,2.88
2023-01-31T20:48:42.616Z,2.88
2023-01-31T20:51:12.392Z,3.45
2023-01-31T20:53:40.380Z,2.67
2023-01-31T20:56:10.532Z,2.78
2023-01-31T20:58:39.995Z,2.80
2023-01-31T21:01:09.841Z,3.35
2023-01-31T21:03:38.511Z,2.47
2023-01-31T21:06:08.404Z,2.78
2023-01-31T21:08:37.597Z,3.17
2023-01-31T21:11:08.285Z,2.97
2023-01-31T21:13:36.697Z,3.47
2023-01-31T21:16:06.737Z,2.50
2023-01-31T21:18:36.394Z,3.25
2023-01-31T21:21:06.850Z,2.78
2023-01-31T21:23:35.097Z,2.83
2023-01-31T21:26:05.888Z,2.42
2023-01-31T21:28:33.788Z,1.58
2023-01-31T21:31:03.112Z,2.58
2023-01-31T21:33:31.424Z,1.77
2023-01-31T21:36:00.606Z,2.72
2023-01-31T21:38:28.980Z,2.88
2023-01-31T21:41:14.765Z,2.53
2023-01-31T21:43:43.946Z,2.97
2023-01-31T21:46:13.150Z,2.30
2023-01-31T21:48:41.129Z,1.77
2023-01-31T21:51:10.501Z,2.40
2023-01-31T21:53:39.136Z,2.65
2023-01-31T21:56:09.197Z,2.90
2023-01-31T21:58:39.066Z,1.88
2023-01-31T22:01:10.753Z,2.42
2023-01-31T22:03:40.288Z,1.90
2023-01-31T22:06:10.681Z,3.03
2023-01-31T22:08:38.573Z,1.85
2023-01-31T22:11:08.067Z,2.63
2023-01-31T22:13:36.053Z,2.30
2023-01-31T22:16:05.565Z,2.42
2023-01-31T22:18:35.068Z,3.38
2023-01-31T22:21:04.146Z,2.97
2023-01-31T22:23:32.663Z,3.10
2023-01-31T22:26:04.402Z,2.45
2023-01-31T22:28:32.181Z,3.60
2023-01-31T22:31:00.878Z,3.53
2023-01-31T22:33:28.802Z,2.35
2023-01-31T22:35:58.194Z,2.47
2023-01-31T22:38:26.628Z,3.33
2023-01-31T22:40:57.797Z,3.50
2023-01-31T22:43:26.320Z,2.65
2023-01-31T22:45:56.281Z,3.28
2023-01-31T22:48:25.839Z,2.60
2023-01-31T22:50:59.989Z,2.65
2023-01-31T22:53:29.520Z,3.28
2023-01-31T22:56:01.381Z,3.03
2023-01-31T22:58:29.595Z,3.10
2023-01-31T23:00:57.321Z,3.45
2023-01-31T23:03:25.429Z,3.97
2023-01-31T23:05:53.294Z,2.85
2023-01-31T23:08:22.442Z,2.65
2023-01-31T23:10:50.377Z,2.70
2023-01-31T23:13:18.118Z,2.78
2023-01-31T23:15:45.839Z,3.60
2023-01-31T23:18:16.821Z,4.10
2023-01-31T23:20:44.560Z,3.50
2023-01-31T23:23:12.277Z,3.55
2023-01-31T23:25:41.568Z,3.45
2023-01-31T23:28:09.473Z,2.92
2023-01-31T23:30:37.259Z,3.30
2023-01-31T23:33:05.084Z,2.65
2023-01-31T23:35:33.414Z,2.53
2023-01-31T23:38:01.111Z,3.58
2023-01-31T23:40:28.906Z,2.42
2023-01-31T23:42:58.127Z,2.78
2023-01-31T23:45:25.910Z,3.05
2023-01-31T23:47:53.991Z,3.00
2023-01-31T23:50:22.041Z,2.72
2023-01-31T23:52:50.026Z,2.75
2023-01-31T23:55:18.237Z,2.65
2023-01-31T23:57:46.023Z,2.38
